createdAt,value
2018-06-16T00:01:49.606Z,84.30
2018-06-16T00:04:17.889Z,84.50
2018-06-16T00:06:46.794Z,84.70
2018-06-16T00:09:15.160Z,85.80
2018-06-16T00:11:43.488Z,85.10
2018-06-16T00:14:11.808Z,84.60
2018-06-16T00:16:40.194Z,84.60
2018-06-16T00:19:08.614Z,84.60
2018-06-16T00:21:37.009Z,84.60
2018-06-16T00:24:05.429Z,84.00
2018-06-16T00:26:33.794Z,83.90
2018-06-16T00:29:02.671Z,84.10
2018-06-16T00:31:30.956Z,83.20
2018-06-16T00:33:59.282Z,83.40
2018-06-16T00:36:27.664Z,83.60
2018-06-16T00:38:56.003Z,83.20
2018-06-16T00:41:24.357Z,83.70
2018-06-16T00:43:53.008Z,83.90
2018-06-16T00:46:21.510Z,83.80
2018-06-16T00:48:49.844Z,84.50
2018-06-16T00:51:18.162Z,84.30
2018-06-16T00:53:46.463Z,84.10
2018-06-16T00:56:14.884Z,84.60
2018-06-16T00:58:43.207Z,84.40
2018-06-16T01:01:11.552Z,84.20
2018-06-16T01:03:39.966Z,84.50
2018-06-16T01:06:08.457Z,85.00
2018-06-16T01:08:36.814Z,85.30
2018-06-16T01:11:05.134Z,85.00
2018-06-16T01:13:33.481Z,84.80
2018-06-16T01:16:01.813Z,85.10
2018-06-16T01:18:30.186Z,85.50
2018-06-16T01:20:58.676Z,85.50
2018-06-16T01:23:27.030Z,85.60
2018-06-16T01:25:55.349Z,85.50
2018-06-16T01:28:23.646Z,86.10
2018-06-16T01:30:51.970Z,85.80
2018-06-16T01:33:20.277Z,86.00
2018-06-16T01:35:48.688Z,85.70
2018-06-16T01:38:17.051Z,86.00
2018-06-16T01:40:46.032Z,86.00
2018-06-16T01:43:14.479Z,86.00
2018-06-16T01:45:42.877Z,86.40
2018-06-16T01:48:11.171Z,86.70
2018-06-16T01:50:39.675Z,86.60
2018-06-16T01:53:07.964Z,87.10
2018-06-16T01:55:36.283Z,87.30
2018-06-16T01:58:04.619Z,88.70
2018-06-16T02:00:32.954Z,88.20
2018-06-16T02:03:01.275Z,88.40
2018-06-16T02:05:29.697Z,88.50
2018-06-16T02:07:58.013Z,88.80
2018-06-16T02:10:26.320Z,89.00
2018-06-16T02:15:22.672Z,89.40
2018-06-16T02:17:51.083Z,89.50
2018-06-16T02:20:19.418Z,89.70
2018-06-16T02:22:47.721Z,90.00
2018-06-16T02:25:16.070Z,89.90
2018-06-16T02:27:44.483Z,90.00
2018-06-16T02:30:12.882Z,90.10
2018-06-16T02:32:41.213Z,90.10
2018-06-16T02:35:09.560Z,90.00
2018-06-16T02:37:37.912Z,89.90
2018-06-16T02:40:06.194Z,90.10
2018-06-16T02:42:34.509Z,90.00
2018-06-16T02:45:02.826Z,90.20
2018-06-16T02:47:31.225Z,90.30
2018-06-16T02:49:59.580Z,90.50
2018-06-16T02:52:27.965Z,90.60
2018-06-16T02:54:56.406Z,90.70
2018-06-16T02:57:24.797Z,90.50
2018-06-16T02:59:53.140Z,90.40
2018-06-16T03:02:21.528Z,90.40
2018-06-16T03:04:49.971Z,90.20
2018-06-16T03:07:18.405Z,90.10
2018-06-16T03:09:46.811Z,90.00
2018-06-16T03:12:15.356Z,90.20
2018-06-16T03:14:43.754Z,90.40
2018-06-16T03:17:12.057Z,90.30
2018-06-16T03:19:40.425Z,90.60
2018-06-16T03:22:08.837Z,90.70
2018-06-16T03:24:37.143Z,90.80
2018-06-16T03:27:05.512Z,90.90
2018-06-16T03:29:33.882Z,90.70
2018-06-16T03:32:02.223Z,90.90
2018-06-16T03:34:30.795Z,90.80
2018-06-16T03:36:59.489Z,90.80
2018-06-16T03:39:27.828Z,90.90
2018-06-16T03:41:56.185Z,91.00
2018-06-16T03:44:24.472Z,91.00
2018-06-16T03:46:52.808Z,91.00
2018-06-16T03:49:21.195Z,91.10
2018-06-16T03:51:49.475Z,91.00
2018-06-16T03:54:17.901Z,90.70
2018-06-16T03:59:14.353Z,90.20
2018-06-16T04:01:42.706Z,90.10
2018-06-16T04:04:10.996Z,88.80
2018-06-16T04:06:39.402Z,89.00
2018-06-16T04:09:09.258Z,88.70
2018-06-16T04:11:37.871Z,88.80
2018-06-16T04:14:06.264Z,88.50
2018-06-16T04:16:34.632Z,88.80
2018-06-16T04:19:02.934Z,89.20
2018-06-16T04:21:31.397Z,89.50
2018-06-16T04:24:00.069Z,89.50
2018-06-16T04:26:28.355Z,89.30
2018-06-16T04:28:57.098Z,89.00
2018-06-16T04:31:25.469Z,88.90
2018-06-16T04:33:53.776Z,88.80
2018-06-16T04:36:22.134Z,88.70
2018-06-16T04:38:50.420Z,89.20
2018-06-16T04:41:18.715Z,89.10
2018-06-16T04:43:47.045Z,88.70
2018-06-16T04:46:15.396Z,88.80
2018-06-16T04:48:43.722Z,89.20
2018-06-16T04:51:12.130Z,88.00
2018-06-16T04:53:40.460Z,87.70
2018-06-16T04:56:08.740Z,86.10
2018-06-16T04:58:37.112Z,86.00
2018-06-16T05:01:05.475Z,85.80
2018-06-16T05:03:34.260Z,85.10
2018-06-16T05:06:02.604Z,84.70
2018-06-16T05:08:30.928Z,83.80
2018-06-16T05:10:59.248Z,83.10
2018-06-16T05:13:27.521Z,83.00
2018-06-16T05:15:55.833Z,82.60
2018-06-16T05:18:24.076Z,82.40
2018-06-16T05:20:52.434Z,81.90
2018-06-16T05:23:20.825Z,81.90
2018-06-16T05:25:49.897Z,82.10
2018-06-16T05:28:18.133Z,81.40
2018-06-16T05:30:46.469Z,80.70
2018-06-16T05:33:14.791Z,80.00
2018-06-16T05:35:43.072Z,79.50
2018-06-16T05:38:11.415Z,79.50
2018-06-16T05:40:39.716Z,79.40
2018-06-16T05:43:08.021Z,79.70
2018-06-16T05:45:36.321Z,80.40
2018-06-16T05:48:04.638Z,80.60
2018-06-16T05:50:32.955Z,81.20
2018-06-16T05:53:01.274Z,81.00
2018-06-16T05:55:29.583Z,81.30
2018-06-16T05:57:57.890Z,81.70
2018-06-16T06:00:27.173Z,81.70
2018-06-16T06:02:55.480Z,82.00
2018-06-16T06:05:23.788Z,82.20
2018-06-16T06:07:52.084Z,81.60
2018-06-16T06:10:20.419Z,81.70
2018-06-16T06:12:48.708Z,81.80
2018-06-16T06:15:16.981Z,82.00
2018-06-16T06:17:45.333Z,82.00
2018-06-16T06:20:13.663Z,81.60
2018-06-16T06:22:41.965Z,82.00
2018-06-16T06:25:10.278Z,82.00
2018-06-16T06:27:38.618Z,82.40
2018-06-16T06:30:06.929Z,82.70
2018-06-16T06:32:35.235Z,83.00
2018-06-16T06:35:03.535Z,82.90
2018-06-16T06:37:31.919Z,82.30
2018-06-16T06:40:00.250Z,82.20
2018-06-16T06:42:28.583Z,82.30
2018-06-16T06:44:56.947Z,81.80
2018-06-16T06:47:25.270Z,81.40
2018-06-16T06:49:53.627Z,81.40
2018-06-16T06:52:22.025Z,80.70
2018-06-16T06:54:50.356Z,80.70
2018-06-16T06:57:18.652Z,80.60
2018-06-16T06:59:46.928Z,79.80
2018-06-16T07:02:15.199Z,78.90
2018-06-16T07:04:43.502Z,79.00
2018-06-16T07:07:11.821Z,79.00
2018-06-16T07:09:40.114Z,78.70
2018-06-16T07:12:08.605Z,78.40
2018-06-16T07:14:37.092Z,78.10
2018-06-16T07:17:05.494Z,77.00
2018-06-16T07:19:33.782Z,76.40
2018-06-16T07:22:02.097Z,75.80
2018-06-16T07:24:30.459Z,75.60
2018-06-16T07:26:58.725Z,75.80
2018-06-16T07:29:27.012Z,74.50
2018-06-16T07:31:55.296Z,74.90
2018-06-16T07:34:23.577Z,73.40
2018-06-16T07:36:51.869Z,73.90
2018-06-16T07:41:48.325Z,73.40
2018-06-16T07:46:44.732Z,72.30
2018-06-16T07:49:13.125Z,72.20
2018-06-16T07:51:41.422Z,72.30
2018-06-16T07:54:09.777Z,71.50
2018-06-16T07:56:38.139Z,71.90
2018-06-16T07:59:06.530Z,72.00
2018-06-16T08:01:34.876Z,72.20
2018-06-16T08:04:03.232Z,71.70
2018-06-16T08:06:32.179Z,71.90
2018-06-16T08:09:00.532Z,71.10
2018-06-16T08:11:28.816Z,70.10
2018-06-16T08:13:57.214Z,71.90
2018-06-16T08:16:25.600Z,71.00
2018-06-16T08:18:53.932Z,70.70
2018-06-16T08:21:22.316Z,70.60
2018-06-16T08:23:50.635Z,70.70
2018-06-16T08:26:18.913Z,69.70
2018-06-16T08:28:47.286Z,69.40
2018-06-16T08:31:15.734Z,70.20
2018-06-16T08:33:44.074Z,70.60
2018-06-16T08:36:12.364Z,69.70
2018-06-16T08:38:40.728Z,69.20
2018-06-16T08:41:09.039Z,69.80
2018-06-16T08:43:37.391Z,69.60
2018-06-16T08:46:05.758Z,69.90
2018-06-16T08:48:34.058Z,69.70
2018-06-16T08:51:02.354Z,69.10
2018-06-16T08:53:30.675Z,68.30
2018-06-16T08:58:27.064Z,67.70
2018-06-16T09:00:55.469Z,68.20
2018-06-16T09:03:23.828Z,67.50
2018-06-16T09:05:52.126Z,67.30
2018-06-16T09:08:20.466Z,67.00
2018-06-16T09:10:48.821Z,67.80
2018-06-16T09:13:17.084Z,68.50
2018-06-16T09:15:45.412Z,68.80
2018-06-16T09:18:13.725Z,69.30
2018-06-16T09:20:42.131Z,67.30
2018-06-16T09:23:10.435Z,67.20
2018-06-16T09:25:38.712Z,65.60
2018-06-16T09:28:07.100Z,66.70
2018-06-16T09:30:35.375Z,67.00
2018-06-16T09:33:03.938Z,67.00
2018-06-16T09:35:32.243Z,67.50
2018-06-16T09:38:01.509Z,67.30
2018-06-16T09:40:29.828Z,67.00
2018-06-16T09:42:58.464Z,65.60
2018-06-16T09:45:26.799Z,67.60
2018-06-16T09:47:55.144Z,68.10
2018-06-16T09:50:23.400Z,67.80
2018-06-16T09:52:51.847Z,68.10
2018-06-16T09:55:20.108Z,67.80
2018-06-16T09:57:48.528Z,66.90
2018-06-16T10:00:22.308Z,67.50
2018-06-16T10:02:50.655Z,67.00
2018-06-16T10:05:19.015Z,66.90
2018-06-16T10:07:47.330Z,66.70
2018-06-16T10:10:16.087Z,67.10
2018-06-16T10:12:44.640Z,67.00
2018-06-16T10:15:13.041Z,67.40
2018-06-16T10:17:41.434Z,66.80
2018-06-16T10:20:09.789Z,66.30
2018-06-16T10:22:38.160Z,65.40
2018-06-16T10:25:06.662Z,64.20
2018-06-16T10:27:35.103Z,62.60
2018-06-16T10:32:31.409Z,60.20
2018-06-16T10:34:59.727Z,60.50
2018-06-16T10:39:56.085Z,62.50
2018-06-16T10:42:24.436Z,63.90
2018-06-16T10:44:52.727Z,61.10
2018-06-16T10:47:21.066Z,59.90
2018-06-16T10:49:49.404Z,60.00
2018-06-16T10:52:17.741Z,60.70
2018-06-16T10:54:46.136Z,61.40
2018-06-16T10:57:14.685Z,58.80
2018-06-16T10:59:44.038Z,58.90
2018-06-16T11:02:12.390Z,58.80
2018-06-16T11:04:40.743Z,58.50
2018-06-16T11:07:09.010Z,58.00
2018-06-16T11:09:37.372Z,58.60
2018-06-16T11:12:05.714Z,58.00
2018-06-16T11:14:34.025Z,58.50
2018-06-16T11:17:02.291Z,57.90
2018-06-16T11:19:30.666Z,58.20
2018-06-16T11:21:58.975Z,59.10
2018-06-16T11:24:27.258Z,59.70
2018-06-16T11:26:55.595Z,59.90
2018-06-16T11:29:23.949Z,60.00
2018-06-16T11:31:52.289Z,59.20
2018-06-16T11:34:20.679Z,58.80
2018-06-16T11:36:49.176Z,58.20
2018-06-16T11:39:17.497Z,58.50
2018-06-16T11:41:45.852Z,58.20
2018-06-16T11:44:14.167Z,57.10
2018-06-16T11:46:42.507Z,57.20
2018-06-16T11:49:10.824Z,56.80
2018-06-16T11:51:39.145Z,57.50
2018-06-16T11:54:07.434Z,57.40
2018-06-16T11:56:35.799Z,56.90
2018-06-16T11:59:04.159Z,56.80
2018-06-16T12:01:32.435Z,55.70
2018-06-16T12:04:00.726Z,55.70
2018-06-16T12:08:57.131Z,55.70
2018-06-16T12:11:25.541Z,55.70
2018-06-16T12:13:53.901Z,57.00
2018-06-16T12:16:22.189Z,57.80
2018-06-16T12:18:50.578Z,57.50
2018-06-16T12:21:19.101Z,56.00
2018-06-16T12:23:47.395Z,56.00
2018-06-16T12:26:15.732Z,55.90
2018-06-16T12:28:44.019Z,56.10
2018-06-16T12:31:12.309Z,56.80
2018-06-16T12:33:40.689Z,55.30
2018-06-16T12:36:08.978Z,56.10
2018-06-16T12:38:37.322Z,55.70
2018-06-16T12:41:05.699Z,55.00
2018-06-16T12:43:34.106Z,56.30
2018-06-16T12:46:02.586Z,56.80
2018-06-16T12:48:31.031Z,56.80
2018-06-16T12:50:59.382Z,56.20
2018-06-16T12:53:27.764Z,56.10
2018-06-16T12:55:56.077Z,55.80
2018-06-16T12:58:24.381Z,55.40
2018-06-16T13:00:52.961Z,55.10
2018-06-16T13:03:21.253Z,55.40
2018-06-16T13:05:49.533Z,54.00
2018-06-16T13:08:17.868Z,53.50
2018-06-16T13:10:46.223Z,53.10
2018-06-16T13:13:14.595Z,53.50
2018-06-16T13:15:42.993Z,54.80
2018-06-16T13:18:11.328Z,54.90
2018-06-16T13:20:39.719Z,55.20
2018-06-16T13:23:08.055Z,55.80
2018-06-16T13:25:36.373Z,55.60
2018-06-16T13:28:04.947Z,55.90
2018-06-16T13:30:33.340Z,56.70
2018-06-16T13:33:01.751Z,57.60
2018-06-16T13:35:30.030Z,58.10
2018-06-16T13:37:58.320Z,58.50
2018-06-16T13:40:26.659Z,58.50
2018-06-16T13:42:54.979Z,59.40
2018-06-16T13:45:23.278Z,59.70
2018-06-16T13:47:51.607Z,59.40
2018-06-16T13:50:19.922Z,59.50
2018-06-16T13:52:48.261Z,59.40
2018-06-16T13:55:16.558Z,58.90
2018-06-16T13:57:44.935Z,58.10
2018-06-16T14:00:13.301Z,57.60
2018-06-16T14:02:41.623Z,57.40
2018-06-16T14:05:09.981Z,57.10
2018-06-16T14:07:38.289Z,56.40
2018-06-16T14:10:06.588Z,56.30
2018-06-16T14:12:34.911Z,56.40
2018-06-16T14:15:03.283Z,56.50
2018-06-16T14:17:31.584Z,56.70
2018-06-16T14:19:59.903Z,56.20
2018-06-16T14:22:28.230Z,57.00
2018-06-16T14:24:56.576Z,57.00
2018-06-16T14:27:24.871Z,56.00
2018-06-16T14:29:53.233Z,55.80
2018-06-16T14:32:21.618Z,55.60
2018-06-16T14:34:49.947Z,55.20
2018-06-16T14:37:18.244Z,54.10
2018-06-16T14:39:46.548Z,54.50
2018-06-16T14:42:14.803Z,53.90
2018-06-16T14:44:43.170Z,52.70
2018-06-16T14:47:11.558Z,54.10
2018-06-16T14:49:39.835Z,53.20
2018-06-16T14:52:08.110Z,52.30
2018-06-16T14:54:36.464Z,52.50
2018-06-16T14:57:04.743Z,52.00
2018-06-16T14:59:33.093Z,52.30
2018-06-16T15:02:01.424Z,52.10
2018-06-16T15:04:29.709Z,51.60
2018-06-16T15:06:58.001Z,50.70
2018-06-16T15:09:26.428Z,51.30
2018-06-16T15:11:54.957Z,51.10
2018-06-16T15:14:23.290Z,50.50
2018-06-16T15:16:51.571Z,50.80
2018-06-16T15:19:19.832Z,50.60
2018-06-16T15:21:48.113Z,49.40
2018-06-16T15:24:16.421Z,51.40
2018-06-16T15:26:44.755Z,50.50
2018-06-16T15:29:13.054Z,51.20
2018-06-16T15:31:41.382Z,50.90
2018-06-16T15:34:09.715Z,51.20
2018-06-16T15:36:38.009Z,52.50
2018-06-16T15:39:07.903Z,51.30
2018-06-16T15:41:36.216Z,52.20
2018-06-16T15:44:04.520Z,51.50
2018-06-16T15:46:33.019Z,52.70
2018-06-16T15:51:29.404Z,52.50
2018-06-16T15:53:57.712Z,52.70
2018-06-16T15:56:26.152Z,52.30
2018-06-16T15:58:54.783Z,51.50
2018-06-16T16:01:23.169Z,52.20
2018-06-16T16:03:51.593Z,52.10
2018-06-16T16:06:19.876Z,52.00
2018-06-16T16:08:48.167Z,52.20
2018-06-16T16:11:16.469Z,52.60
2018-06-16T16:13:44.839Z,53.10
2018-06-16T16:16:13.211Z,51.90
2018-06-16T16:18:41.537Z,51.80
2018-06-16T16:21:09.951Z,51.60
2018-06-16T16:26:04.933Z,51.20
2018-06-16T16:28:33.235Z,51.00
2018-06-16T16:31:01.587Z,51.20
2018-06-16T16:33:30.840Z,51.10
2018-06-16T16:35:59.349Z,51.00
2018-06-16T16:38:27.731Z,51.40
2018-06-16T16:40:56.044Z,52.10
2018-06-16T16:43:24.366Z,52.00
2018-06-16T16:45:52.629Z,50.60
2018-06-16T16:48:20.885Z,51.80
2018-06-16T16:50:49.125Z,51.90
2018-06-16T16:53:17.405Z,52.20
2018-06-16T16:55:45.738Z,52.90
2018-06-16T16:58:13.991Z,52.90
2018-06-16T17:00:42.317Z,53.40
2018-06-16T17:03:10.650Z,53.60
2018-06-16T17:05:38.938Z,54.10
2018-06-16T17:08:07.254Z,55.10
2018-06-16T17:10:35.800Z,55.10
2018-06-16T17:13:04.140Z,55.20
2018-06-16T17:15:32.503Z,55.70
2018-06-16T17:18:00.956Z,55.90
2018-06-16T17:20:29.244Z,56.20
2018-06-16T17:22:57.663Z,56.20
2018-06-16T17:25:25.969Z,57.10
2018-06-16T17:27:54.380Z,57.00
2018-06-16T17:30:22.782Z,58.20
2018-06-16T17:32:51.079Z,57.80
2018-06-16T17:35:19.333Z,58.70
2018-06-16T17:37:47.793Z,59.10
2018-06-16T17:40:16.068Z,59.50
2018-06-16T17:42:44.361Z,60.10
2018-06-16T17:45:12.707Z,60.00
2018-06-16T17:47:41.142Z,60.20
2018-06-16T17:50:09.555Z,60.10
2018-06-16T17:52:37.856Z,60.20
2018-06-16T17:55:06.186Z,60.40
2018-06-16T17:57:34.494Z,60.30
2018-06-16T18:00:02.952Z,60.10
2018-06-16T18:02:31.244Z,60.50
2018-06-16T18:04:59.538Z,61.10
2018-06-16T18:07:27.906Z,61.40
2018-06-16T18:09:56.219Z,62.80
2018-06-16T18:12:24.454Z,66.30
2018-06-16T18:14:52.826Z,69.60
2018-06-16T18:17:21.151Z,72.50
2018-06-16T18:19:49.464Z,76.80
2018-06-16T18:22:17.800Z,81.30
2018-06-16T18:24:46.186Z,82.30
2018-06-16T18:27:14.582Z,84.10
2018-06-16T18:29:47.094Z,85.70
2018-06-16T18:32:15.396Z,87.10
2018-06-16T18:34:43.693Z,88.50
2018-06-16T18:37:12.042Z,89.50
2018-06-16T18:39:40.333Z,90.10
2018-06-16T18:42:08.871Z,89.20
2018-06-16T18:44:37.271Z,90.60
2018-06-16T18:47:05.787Z,89.90
2018-06-16T18:49:34.115Z,91.30
2018-06-16T18:52:02.468Z,91.50
2018-06-16T18:54:30.800Z,91.30
2018-06-16T18:56:59.077Z,91.10
2018-06-16T18:59:27.382Z,91.60
2018-06-16T19:01:55.792Z,91.50
2018-06-16T19:04:24.187Z,91.20
2018-06-16T19:06:52.555Z,91.40
2018-06-16T19:09:20.934Z,91.00
2018-06-16T19:11:49.225Z,91.00
2018-06-16T19:14:17.471Z,90.90
2018-06-16T19:16:46.064Z,91.20
2018-06-16T19:19:14.406Z,91.40
2018-06-16T19:21:42.695Z,91.40
2018-06-16T19:24:10.948Z,91.50
2018-06-16T19:26:39.338Z,91.40
2018-06-16T19:29:07.664Z,91.20
2018-06-16T19:31:36.075Z,91.50
2018-06-16T19:34:04.363Z,91.60
2018-06-16T19:36:32.667Z,92.00
2018-06-16T19:39:00.983Z,91.70
2018-06-16T19:41:29.306Z,92.00
2018-06-16T19:43:57.780Z,92.00
2018-06-16T19:46:26.123Z,91.60
2018-06-16T19:48:54.411Z,91.10
2018-06-16T19:51:22.714Z,90.90
2018-06-16T19:53:51.047Z,88.60
2018-06-16T19:56:19.366Z,88.80
2018-06-16T19:58:47.641Z,88.20
2018-06-16T20:01:15.976Z,86.70
2018-06-16T20:03:44.322Z,86.40
2018-06-16T20:06:12.692Z,86.10
2018-06-16T20:08:40.996Z,85.50
2018-06-16T20:11:09.426Z,86.30
2018-06-16T20:13:37.716Z,86.00
2018-06-16T20:16:06.254Z,86.10
2018-06-16T20:18:34.615Z,87.10
2018-06-16T20:21:02.956Z,87.10
2018-06-16T20:23:31.286Z,86.70
2018-06-16T20:25:59.565Z,86.70
2018-06-16T20:28:27.867Z,85.80
2018-06-16T20:30:56.322Z,86.90
2018-06-16T20:33:24.577Z,88.50
2018-06-16T20:35:53.058Z,86.00
2018-06-16T20:38:21.367Z,85.00
2018-06-16T20:40:49.737Z,85.80
2018-06-16T20:43:18.394Z,86.50
2018-06-16T20:45:46.681Z,85.20
2018-06-16T20:48:15.066Z,86.30
2018-06-16T20:50:43.596Z,86.70
2018-06-16T20:53:12.228Z,85.90
2018-06-16T20:55:40.552Z,87.70
2018-06-16T20:58:08.912Z,85.00
2018-06-16T21:00:37.199Z,84.20
2018-06-16T21:03:05.889Z,86.70
2018-06-16T21:08:02.260Z,86.80
2018-06-16T21:10:30.524Z,85.10
2018-06-16T21:12:58.830Z,85.50
2018-06-16T21:15:27.163Z,86.00
2018-06-16T21:17:55.516Z,87.60
2018-06-16T21:20:23.830Z,86.50
2018-06-16T21:22:52.135Z,87.90
2018-06-16T21:25:20.505Z,87.10
2018-06-16T21:27:48.867Z,87.50
2018-06-16T21:30:17.315Z,86.60
2018-06-16T21:32:45.678Z,86.80
2018-06-16T21:35:14.355Z,85.90
2018-06-16T21:37:42.631Z,85.80
2018-06-16T21:40:11.656Z,86.10
2018-06-16T21:42:39.962Z,88.50
2018-06-16T21:45:08.285Z,90.10
2018-06-16T21:47:36.554Z,89.90
2018-06-16T21:50:04.884Z,90.10
2018-06-16T21:52:33.200Z,90.40
2018-06-16T21:55:01.487Z,90.60
2018-06-16T21:57:29.808Z,90.40
2018-06-16T21:59:58.089Z,90.70
2018-06-16T22:02:26.390Z,90.90
2018-06-16T22:04:54.840Z,91.10
2018-06-16T22:07:23.212Z,91.50
2018-06-16T22:09:51.694Z,91.90
2018-06-16T22:12:20.173Z,92.00
2018-06-16T22:14:48.453Z,92.30
2018-06-16T22:17:16.773Z,91.80
2018-06-16T22:19:45.061Z,91.60
2018-06-16T22:22:13.358Z,91.40
2018-06-16T22:24:41.702Z,91.50
2018-06-16T22:27:10.035Z,91.60
2018-06-16T22:29:38.336Z,91.50
2018-06-16T22:32:06.653Z,91.40
2018-06-16T22:34:34.971Z,91.60
2018-06-16T22:37:03.262Z,91.60
2018-06-16T22:39:31.621Z,91.60
2018-06-16T22:41:59.990Z,91.50
2018-06-16T22:44:28.373Z,91.90
2018-06-16T22:46:56.669Z,91.70
2018-06-16T22:49:24.980Z,91.90
2018-06-16T22:51:53.292Z,91.70
2018-06-16T22:54:21.603Z,91.70
2018-06-16T22:56:49.918Z,91.90
2018-06-16T22:59:18.284Z,92.00
2018-06-16T23:01:46.596Z,92.10
2018-06-16T23:04:14.882Z,92.10
2018-06-16T23:06:43.172Z,92.10
2018-06-16T23:09:12.315Z,92.20
2018-06-16T23:11:40.902Z,92.10
2018-06-16T23:14:09.223Z,92.00
2018-06-16T23:16:37.842Z,92.70
2018-06-16T23:19:06.247Z,92.30
2018-06-16T23:21:34.622Z,92.10
2018-06-16T23:24:03.007Z,92.50
2018-06-16T23:26:31.344Z,92.70
2018-06-16T23:28:59.679Z,92.80
2018-06-16T23:31:28.044Z,92.90
2018-06-16T23:33:56.382Z,92.90
2018-06-16T23:36:24.728Z,93.10
2018-06-16T23:38:53.050Z,92.80
2018-06-16T23:41:21.396Z,92.70
2018-06-16T23:43:49.702Z,92.60
2018-06-16T23:46:18.015Z,92.40
2018-06-16T23:48:46.301Z,92.40
2018-06-16T23:51:14.595Z,92.00
2018-06-16T23:53:42.890Z,91.70
2018-06-16T23:56:11.367Z,91.30
2018-06-16T23:58:39.766Z,91.00
